This is the latest recevied weather packets stored in our database for station/object OE1HTB-13. If no packets are shown the sender has not sent any weather packets the latest 10 day(s).
| Time | Temp. | Humidity | Pressure | Rain* | Wind** | Luminosity | Snow |
|---|---|---|---|---|---|---|---|
| 1777776372 | 10° C | 69% | 1017.3 hPa | 0 mm | - | 0 W/m² | - |
| 1777775471 | 10.56° C | 66% | 1017.4 hPa | 0 mm | - | 0 W/m² | - |
| 1777774571 | 11.11° C | 62% | 1017 hPa | 0 mm | - | 0 W/m² | - |
| 1777773671 | 11.67° C | 62% | 1017 hPa | 0 mm | - | 0 W/m² | - |
| 1777772771 | 11.67° C | 61% | 1017 hPa | 0 mm | - | 0 W/m² | - |
| 1777771871 | 11.67° C | 62% | 1017 hPa | 0 mm | - | 0 W/m² | - |
| 1777770971 | 11.67° C | 61% | 1017.1 hPa | 0 mm | - | 0 W/m² | - |
| 1777770070 | 12.22° C | 61% | 1017.2 hPa | 0 mm | - | 0 W/m² | - |
| 1777769172 | 12.22° C | 60% | 1017.2 hPa | 0 mm | - | 0 W/m² | - |
| 1777768270 | 12.78° C | 59% | 1017.3 hPa | 0 mm | - | 0 W/m² | - |
| 1777767370 | 12.78° C | 60% | 1017.4 hPa | 0 mm | - | 0 W/m² | - |
| 1777766470 | 12.78° C | 61% | 1017.5 hPa | 0 mm | - | 0 W/m² | - |
| 1777765570 | 12.78° C | 59% | 1017.7 hPa | 0 mm | - | 0 W/m² | - |
| 1777764669 | 13.33° C | 59% | 1017.8 hPa | 0 mm | - | 0 W/m² | - |
| 1777763769 | 13.33° C | 58% | 1017.9 hPa | 0 mm | - | 0 W/m² | - |
| 1777762869 | 13.33° C | 58% | 1018 hPa | 0 mm | - | 0 W/m² | - |
| 1777761969 | 13.33° C | 58% | 1018.1 hPa | 0 mm | - | 0 W/m² | - |
| 1777761074 | 13.33° C | 58% | 1018.2 hPa | 0 mm | - | 0 W/m² | - |
| 1777760174 | 13.33° C | 58% | 1018.3 hPa | 0 mm | - | 0 W/m² | - |
| 1777759274 | 13.33° C | 56% | 1018.3 hPa | 0 mm | - | 0 W/m² | - |
| 1777758373 | 13.89° C | 56% | 1018.4 hPa | 0 mm | - | 0 W/m² | - |
| 1777757474 | 13.89° C | 56% | 1018.4 hPa | 0 mm | - | 0 W/m² | - |
| 1777756574 | 13.89° C | 56% | 1018.5 hPa | 0 mm | - | 0 W/m² | - |
| 1777755673 | 13.89° C | 55% | 1018.6 hPa | 0 mm | - | 0 W/m² | - |
| 1777754773 | 13.89° C | 55% | 1018.8 hPa | 0 mm | - | 0 W/m² | - |
* Rain latest hour (hover to see other rain measurements)
** Current wind speed in m/s (hover to see current wind gust speed)